Time;durP1;ratioP1;P1;durP2;ratioP2;P2;SDS_P1;SDS_P2;PMS_P1;PMS_P2;Temp;Humidity;BMP_temperature;BMP_pressure;BME280_temperature;BME280_humidity;BME280_pressure;Samples;Min_cycle;Max_cycle;Signal;HPM_P1;HPM_P2
2023/02/14 00:00:09;;;;;;;8.13;2.10;;;;;;;11.84;100.00;102199.97;2069725;28;20056;-76
2023/02/14 00:01:31;;;;;;;5.28;2.25;;;;;;;11.82;100.00;102199.00;2070486;28;20041;-76
2023/02/14 00:02:55;;;;;;;6.25;2.80;;;;;;;11.82;100.00;102202.56;2086448;28;20378;-76
2023/02/14 00:04:19;;;;;;;5.50;2.70;;;;;;;11.81;100.00;102202.53;2075179;28;20144;-77
2023/02/14 00:05:40;;;;;;;6.95;2.10;;;;;;;11.80;100.00;102200.72;2073150;28;20050;-77
2023/02/14 00:07:03;;;;;;;6.95;2.28;;;;;;;11.79;100.00;102197.19;2073268;28;20046;-76
2023/02/14 00:08:24;;;;;;;4.57;1.75;;;;;;;11.80;100.00;102198.06;2062561;28;20074;-76
2023/02/14 00:09:46;;;;;;;4.32;1.90;;;;;;;11.81;100.00;102199.88;2069993;28;20046;-77
2023/02/14 00:11:07;;;;;;;5.60;2.30;;;;;;;11.78;100.00;102192.72;2070436;28;20046;-76
2023/02/14 00:12:30;;;;;;;5.18;2.10;;;;;;;11.79;100.00;102183.94;2070507;28;20045;-76
2023/02/14 00:15:32;;;;;;;5.53;2.20;;;;;;;11.81;100.00;102190.19;2073090;28;20136;-76
2023/02/14 00:16:54;;;;;;;6.13;2.20;;;;;;;11.81;100.00;102190.19;2070446;28;20526;-76
2023/02/14 00:18:16;;;;;;;5.45;2.20;;;;;;;11.81;100.00;102192.84;2072726;28;20045;-77
2023/02/14 00:19:38;;;;;;;4.72;2.00;;;;;;;11.81;100.00;102190.19;2070536;28;20057;-77
2023/02/14 00:21:01;;;;;;;4.47;2.20;;;;;;;11.82;100.00;102188.41;2081092;28;20059;-76
2023/02/14 00:22:23;;;;;;;4.63;2.10;;;;;;;11.82;99.70;102185.78;2089344;28;20140;-76
2023/02/14 00:23:45;;;;;;;4.07;1.70;;;;;;;11.82;98.82;102186.69;2081448;28;20094;-77
2023/02/14 00:25:07;;;;;;;5.25;2.13;;;;;;;11.82;98.15;102191.97;2075781;28;20076;-76
2023/02/14 00:26:29;;;;;;;5.90;2.08;;;;;;;11.83;97.48;102191.13;2083922;28;20069;-76
2023/02/14 00:27:53;;;;;;;6.50;2.53;;;;;;;11.83;96.65;102179.63;2078645;28;20064;-76
2023/02/14 00:29:18;;;;;;;4.63;2.38;;;;;;;11.83;96.45;102180.53;2092902;28;20109;-76
2023/02/14 00:30:40;;;;;;;5.38;2.13;;;;;;;11.83;96.70;102183.19;2080761;28;20049;-76
2023/02/14 00:32:03;;;;;;;6.38;2.28;;;;;;;11.81;97.33;102174.31;2094847;28;20492;-77
2023/02/14 00:33:25;;;;;;;4.53;2.25;;;;;;;11.82;97.96;102176.09;2083634;28;20053;-77
2023/02/14 00:34:47;;;;;;;8.30;2.35;;;;;;;11.81;98.42;102176.97;2078290;28;20184;-77
2023/02/14 00:36:10;;;;;;;3.85;2.10;;;;;;;11.81;99.39;102179.63;2094977;28;20053;-76
2023/02/14 00:37:32;;;;;;;6.53;2.40;;;;;;;11.81;100.00;102178.72;2083631;28;20072;-76
2023/02/14 00:38:53;;;;;;;7.13;2.38;;;;;;;11.81;100.00;102176.97;2094463;28;20117;-76
2023/02/14 00:40:15;;;;;;;6.93;2.63;;;;;;;11.80;100.00;102172.53;2083969;28;20053;-77
2023/02/14 00:41:39;;;;;;;5.00;2.58;;;;;;;11.81;100.00;102176.06;2094946;28;20409;-76
2023/02/14 00:43:01;;;;;;;4.72;2.25;;;;;;;11.79;100.00;102162.78;2075075;28;20450;-77
2023/02/14 00:44:25;;;;;;;5.95;2.42;;;;;;;11.80;100.00;102158.38;2092420;28;20063;-77
2023/02/14 00:45:46;;;;;;;7.20;2.80;;;;;;;11.80;100.00;102168.97;2074905;28;20038;-76
2023/02/14 00:47:08;;;;;;;8.15;2.92;;;;;;;11.81;100.00;102152.25;2091859;28;20139;-76
2023/02/14 00:48:31;;;;;;;7.38;2.60;;;;;;;11.82;100.00;102159.31;2083646;28;20095;-76
2023/02/14 00:49:53;;;;;;;5.95;2.42;;;;;;;11.83;100.00;102162.03;2094804;28;20563;-77
2023/02/14 00:51:17;;;;;;;8.90;2.78;;;;;;;11.83;100.00;102156.72;2075095;28;20633;-77
2023/02/14 00:52:39;;;;;;;7.85;2.85;;;;;;;11.84;100.00;102162.91;2084162;28;20048;-77
2023/02/14 00:54:00;;;;;;;6.68;2.95;;;;;;;11.84;100.00;102157.63;2080854;28;20053;-77
2023/02/14 00:55:23;;;;;;;7.53;2.83;;;;;;;11.85;100.00;102156.78;2078068;28;20444;-77
2023/02/14 00:56:45;;;;;;;6.55;2.35;;;;;;;11.85;100.00;102148.84;2078396;28;20393;-77
2023/02/14 00:58:06;;;;;;;6.45;2.60;;;;;;;11.84;100.00;102150.59;2085532;28;20041;-77
2023/02/14 00:59:30;;;;;;;5.03;2.50;;;;;;;11.84;100.00;102152.34;2086828;28;20049;-76
2023/02/14 01:00:52;;;;;;;5.47;2.60;;;;;;;11.82;100.00;102152.28;2099362;28;20060;-77
2023/02/14 01:02:14;;;;;;;6.65;2.53;;;;;;;11.82;100.00;102152.28;2083200;28;20136;-77
2023/02/14 01:03:37;;;;;;;5.00;2.80;;;;;;;11.81;100.00;102147.88;2086610;28;20432;-76
2023/02/14 01:04:59;;;;;;;5.18;2.63;;;;;;;11.81;100.00;102146.97;2086494;28;20041;-78
2023/02/14 01:06:21;;;;;;;7.60;2.88;;;;;;;11.80;100.00;102143.41;2096796;28;20052;-78
2023/02/14 01:07:45;;;;;;;8.70;2.88;;;;;;;11.78;100.00;102137.16;2089125;28;20045;-78
2023/02/14 01:09:06;;;;;;;5.93;2.80;;;;;;;11.76;100.00;102136.22;2092645;28;20841;-77
2023/02/14 01:10:28;;;;;;;6.68;2.65;;;;;;;11.75;100.00;102134.41;2097151;28;20052;-77
2023/02/14 01:11:50;;;;;;;6.40;2.70;;;;;;;11.73;100.00;102136.09;2088920;28;20049;-77
2023/02/14 01:13:13;;;;;;;8.57;2.65;;;;;;;11.72;100.00;102120.16;2102918;28;20059;-78
2023/02/14 01:14:37;;;;;;;4.72;2.45;;;;;;;11.71;100.00;102134.22;2083321;28;20053;-77
2023/02/14 01:15:58;;;;;;;5.70;2.60;;;;;;;11.71;100.00;102136.88;2092376;28;20040;-77
2023/02/14 01:17:22;;;;;;;7.13;2.47;;;;;;;11.72;100.00;102130.75;2080711;28;20416;-75
2023/02/14 01:18:44;;;;;;;10.25;3.17;;;;;;;11.73;100.00;102129.91;2077803;28;20057;-77
2023/02/14 01:20:08;;;;;;;7.28;2.95;;;;;;;11.74;100.00;102119.41;2080633;28;20049;-76
2023/02/14 01:21:32;;;;;;;6.35;2.70;;;;;;;11.75;100.00;102130.91;2078402;28;20057;-76
2023/02/14 01:22:53;;;;;;;7.88;2.80;;;;;;;11.77;100.00;102132.72;2100511;28;20059;-76
2023/02/14 01:24:16;;;;;;;6.38;2.70;;;;;;;11.76;100.00;102130.91;2091920;28;20045;-76
2023/02/14 01:25:38;;;;;;;8.18;2.58;;;;;;;11.78;100.00;102129.22;2102947;28;20047;-76
2023/02/14 01:27:00;;;;;;;9.32;3.33;;;;;;;11.78;100.00;102131.88;2091142;28;20056;-77
2023/02/14 01:28:22;;;;;;;8.00;2.85;;;;;;;11.79;100.00;102124.84;2100470;28;20152;-76
2023/02/14 01:29:45;;;;;;;6.10;2.85;;;;;;;11.80;100.00;102124.00;2090052;28;20049;-76
2023/02/14 01:31:11;;;;;;;5.65;3.03;;;;;;;11.81;100.00;102132.00;2077500;28;20111;-77
2023/02/14 01:32:33;;;;;;;7.00;2.50;;;;;;;11.81;100.00;102118.75;2084328;28;20090;-77
2023/02/14 01:33:55;;;;;;;7.90;2.97;;;;;;;11.82;100.00;102130.22;2090612;28;20049;-77
2023/02/14 01:35:18;;;;;;;4.32;2.22;;;;;;;11.80;100.00;102122.25;2080422;28;20522;-77
2023/02/14 01:36:40;;;;;;;6.63;2.80;;;;;;;11.83;100.00;102126.72;2077965;28;20061;-77
2023/02/14 01:38:04;;;;;;;6.68;2.58;;;;;;;11.82;100.00;102115.22;2079659;28;20056;-76
2023/02/14 01:39:27;;;;;;;5.50;2.53;;;;;;;11.82;100.00;102114.34;2085955;28;20068;-76
2023/02/14 01:40:49;;;;;;;9.98;3.50;;;;;;;11.83;100.00;102116.13;2102542;28;20602;-77
2023/02/14 01:42:12;;;;;;;10.65;2.95;;;;;;;11.82;100.00;102123.16;2091101;28;20098;-77
2023/02/14 01:43:49;;;;;;;6.57;3.15;;;;;;;11.82;100.00;102117.88;2088700;28;20041;-77
2023/02/14 01:45:20;;;;;;;9.00;3.88;;;;;;;11.82;100.00;102107.31;2080038;28;20100;-77
2023/02/14 01:46:43;;;;;;;6.97;3.00;;;;;;;11.83;100.00;102109.09;2077230;28;20059;-77
2023/02/14 01:48:05;;;;;;;7.45;3.13;;;;;;;11.84;100.00;102102.06;2083682;28;20386;-77
2023/02/14 01:49:32;;;;;;;4.22;2.58;;;;;;;11.85;100.00;102106.50;2072228;28;20049;-78
2023/02/14 01:50:55;;;;;;;11.43;3.53;;;;;;;11.83;100.00;102106.47;2078156;28;20061;-78
2023/02/14 01:52:21;;;;;;;7.75;3.13;;;;;;;11.84;100.00;102108.25;2085215;28;20053;-76
2023/02/14 01:53:43;;;;;;;8.93;2.88;;;;;;;11.83;100.00;102111.75;2094052;28;20425;-78
2023/02/14 01:55:10;;;;;;;6.43;3.38;;;;;;;11.83;100.00;102108.19;2085041;28;20414;-78
2023/02/14 01:56:38;;;;;;;7.60;2.95;;;;;;;11.84;100.00;102113.56;2094662;28;20074;-78
2023/02/14 01:58:03;;;;;;;9.15;3.42;;;;;;;11.84;100.00;102107.34;2075858;28;20046;-78
2023/02/14 01:59:30;;;;;;;7.93;3.35;;;;;;;11.84;100.00;102108.25;2092188;28;20347;-78
2023/02/14 02:00:58;;;;;;;8.38;3.10;;;;;;;11.83;100.00;102106.47;2080238;28;20045;-77
2023/02/14 02:02:24;;;;;;;7.47;3.13;;;;;;;11.81;100.00;102100.25;2084548;28;20146;-77
2023/02/14 02:03:50;;;;;;;8.98;2.90;;;;;;;11.84;100.00;102107.34;2085256;28;20472;-78
2023/02/14 02:05:15;;;;;;;9.50;3.20;;;;;;;11.82;100.00;102096.72;2085014;28;20056;-78
2023/02/14 02:06:40;;;;;;;13.98;3.38;;;;;;;11.82;100.00;102102.00;2077855;28;20045;-78
2023/02/14 02:08:01;;;;;;;5.72;3.20;;;;;;;11.84;100.00;102102.97;2092388;28;20052;-78
2023/02/14 02:09:29;;;;;;;6.53;2.92;;;;;;;11.84;100.00;102096.78;2080106;28;20041;-78
2023/02/14 02:10:50;;;;;;;7.00;3.08;;;;;;;11.85;100.00;102095.94;2076049;28;20087;-78
2023/02/14 02:12:15;;;;;;;7.88;3.30;;;;;;;11.84;100.00;102095.03;2084021;28;20069;-77
2023/02/14 02:13:38;;;;;;;9.32;2.80;;;;;;;11.86;100.00;102097.72;2078545;28;20887;-76
2023/02/14 02:15:02;;;;;;;7.47;3.03;;;;;;;11.86;100.00;102100.38;2085724;28;20529;-76
2023/02/14 02:16:42;;;;;;;9.40;3.70;;;;;;;11.84;100.00;102097.69;2086151;28;20448;-77
2023/02/14 02:18:14;;;;;;;7.30;3.08;;;;;;;11.83;100.00;102100.25;2104703;28;20048;-76
2023/02/14 02:20:23;;;;;;;7.85;3.75;;;;;;;11.80;100.00;102093.16;2089708;28;20041;-77
2023/02/14 02:22:11;;;;;;;9.98;3.20;;;;;;;11.78;100.00;102092.19;2055492;28;20051;-77
2023/02/14 02:23:58;;;;;;;7.28;3.25;;;;;;;11.79;100.00;102095.72;2086273;28;20041;-76
2023/02/14 02:25:39;;;;;;;8.40;3.25;;;;;;;11.78;100.00;102083.34;2096495;28;20040;-76
2023/02/14 02:27:41;;;;;;;8.82;3.05;;;;;;;11.77;100.00;102093.03;2080071;28;20061;-76
2023/02/14 02:29:30;;;;;;;5.10;2.80;;;;;;;11.76;100.00;102085.94;2104836;28;20452;-77
2023/02/14 02:31:22;;;;;;;9.30;3.17;;;;;;;11.79;100.00;102077.22;2071738;28;20038;-77
2023/02/14 02:33:20;;;;;;;8.15;3.60;;;;;;;11.78;100.00;102084.25;2096633;28;20508;-76
2023/02/14 02:35:18;;;;;;;8.07;3.15;;;;;;;11.78;100.00;102076.31;2061931;28;20045;-77
2023/02/14 02:37:10;;;;;;;9.13;3.17;;;;;;;11.78;100.00;102078.06;2080147;28;20453;-78
2023/02/14 02:38:47;;;;;;;9.60;3.72;;;;;;;11.77;100.00;102086.84;2088125;28;20661;-77
2023/02/14 02:40:28;;;;;;;7.53;3.83;;;;;;;11.76;100.00;102079.75;2096568;28;20044;-77
2023/02/14 02:42:04;;;;;;;11.50;5.15;;;;;;;11.75;100.00;102072.69;2073388;28;20045;-77
2023/02/14 02:43:38;;;;;;;19.52;8.05;;;;;;;11.75;100.00;102084.13;2103442;28;20078;-76
2023/02/14 02:45:11;;;;;;;22.30;8.35;;;;;;;11.76;100.00;102082.41;2088606;28;20053;-78
2023/02/14 02:46:48;;;;;;;45.85;20.60;;;;;;;11.74;100.00;102074.44;2086990;28;20048;-77
2023/02/14 02:48:21;;;;;;;19.75;8.98;;;;;;;11.74;100.00;102082.38;2095886;28;20056;-78
2023/02/14 02:53:21;;;;;;;11.23;4.93;;;;;;;11.64;100.00;102071.38;2079474;28;20801;-78
2023/02/14 02:54:49;;;;;;;9.82;5.22;;;;;;;11.63;100.00;102073.13;2084634;28;20550;-77
2023/02/14 02:57:56;;;;;;;12.82;5.57;;;;;;;11.59;100.00;102072.16;2080028;28;20112;-77
2023/02/14 02:59:22;;;;;;;12.88;5.15;;;;;;;11.59;100.00;102069.50;2074642;28;20038;-75
2023/02/14 03:00:52;;;;;;;8.00;4.32;;;;;;;11.59;100.00;102072.16;2085186;28;20084;-76
2023/02/14 03:02:22;;;;;;;7.95;4.20;;;;;;;11.59;100.00;102068.59;2086374;28;20488;-76
2023/02/14 03:05:28;;;;;;;8.98;3.40;;;;;;;11.62;100.00;102063.41;2079871;28;20064;-76
2023/02/14 03:06:52;;;;;;;6.30;3.28;;;;;;;11.63;100.00;102059.91;2077678;28;20053;-76
2023/02/14 03:08:15;;;;;;;10.02;4.07;;;;;;;11.65;100.00;102067.91;2077556;28;20050;-76
2023/02/14 03:09:56;;;;;;;10.15;4.15;;;;;;;11.65;100.00;102071.44;2074825;28;20042;-76
2023/02/14 03:11:19;;;;;;;10.48;3.35;;;;;;;11.66;100.00;102059.13;2079421;28;20041;-76
2023/02/14 03:12:56;;;;;;;10.20;4.40;;;;;;;11.67;100.00;102064.47;2090657;28;20438;-76
2023/02/14 03:14:23;;;;;;;7.25;3.50;;;;;;;11.68;100.00;102063.63;2088356;28;20045;-76
2023/02/14 03:16:08;;;;;;;8.75;3.50;;;;;;;11.72;100.00;102062.84;2077689;28;20076;-76
2023/02/14 03:17:37;;;;;;;7.40;3.05;;;;;;;11.72;100.00;102060.22;2079947;28;20678;-76
2023/02/14 03:19:25;;;;;;;8.35;3.58;;;;;;;11.75;100.00;102057.69;2084798;28;20409;-75
2023/02/14 03:20:55;;;;;;;6.97;3.10;;;;;;;11.77;100.00;102058.63;2080015;28;20049;-76
2023/02/14 03:22:27;;;;;;;9.35;3.70;;;;;;;11.81;100.00;102059.66;2086521;28;20052;-75
2023/02/14 03:23:57;;;;;;;7.35;3.15;;;;;;;11.82;100.00;102059.69;2088160;28;20067;-76
2023/02/14 03:25:32;;;;;;;13.77;3.90;;;;;;;11.83;100.00;102056.19;2094949;28;20055;-76
2023/02/14 03:27:02;;;;;;;10.77;3.40;;;;;;;11.83;100.00;102058.81;2080796;28;20781;-76
2023/02/14 03:28:32;;;;;;;7.43;3.80;;;;;;;11.82;100.00;102054.38;2079982;28;20049;-76
2023/02/14 03:30:02;;;;;;;13.07;3.95;;;;;;;11.81;100.00;102057.91;2096136;28;20040;-77
2023/02/14 03:31:29;;;;;;;8.55;3.65;;;;;;;11.80;100.00;102057.84;2081673;28;20045;-76
2023/02/14 03:32:59;;;;;;;6.82;3.45;;;;;;;11.78;100.00;102052.50;2085957;28;20053;-77
2023/02/14 03:34:28;;;;;;;8.30;3.65;;;;;;;11.77;100.00;102061.28;2096202;28;20059;-76
2023/02/14 03:36:01;;;;;;;9.20;3.47;;;;;;;11.78;100.00;102056.91;2080099;28;20053;-77
2023/02/14 03:37:32;;;;;;;9.50;3.33;;;;;;;11.77;100.00;102053.34;2077813;28;20077;-76
2023/02/14 03:39:03;;;;;;;12.13;3.97;;;;;;;11.74;100.00;102053.28;2084632;28;20574;-78
2023/02/14 03:40:28;;;;;;;7.55;3.70;;;;;;;11.72;100.00;102057.56;2094962;28;20041;-77
2023/02/14 03:41:55;;;;;;;8.57;3.50;;;;;;;11.70;100.00;102059.25;2079878;28;20397;-78
2023/02/14 03:43:21;;;;;;;7.43;3.33;;;;;;;11.65;100.00;102052.03;2092103;28;20048;-78
2023/02/14 03:44:44;;;;;;;6.45;3.30;;;;;;;11.60;100.00;102049.25;2081942;28;20052;-77
2023/02/14 03:46:13;;;;;;;8.63;3.95;;;;;;;11.55;100.00;102043.78;2085659;28;20045;-78
2023/02/14 03:47:39;;;;;;;7.93;3.92;;;;;;;11.52;100.00;102043.72;2102650;28;20137;-79
2023/02/14 03:49:09;;;;;;;7.45;3.70;;;;;;;11.52;100.00;102053.38;2090121;28;20067;-79
2023/02/14 03:50:33;;;;;;;11.13;3.50;;;;;;;11.49;100.00;102053.28;2086585;28;20045;-78
2023/02/14 03:51:59;;;;;;;7.18;3.55;;;;;;;11.47;100.00;102047.06;2085401;28;20458;-78
2023/02/14 03:53:25;;;;;;;9.82;4.00;;;;;;;11.43;100.00;102046.03;2085606;28;20127;-77
2023/02/14 03:54:51;;;;;;;8.23;3.75;;;;;;;11.41;100.00;102050.41;2077444;28;20076;-78
2023/02/14 03:56:18;;;;;;;9.63;3.38;;;;;;;11.38;100.00;102046.75;2092113;28;20524;-78
2023/02/14 03:57:47;;;;;;;11.30;3.55;;;;;;;11.33;100.00;102051.88;2079431;28;20050;-78
2023/02/14 03:59:15;;;;;;;9.55;4.00;;;;;;;11.27;100.00;102046.41;2086154;28;20068;-78
2023/02/14 04:00:41;;;;;;;11.25;4.22;;;;;;;11.25;100.00;102047.19;2080550;28;20088;-78
2023/02/14 04:02:07;;;;;;;8.18;3.35;;;;;;;11.22;100.00;102047.09;2078955;28;20046;-78
2023/02/14 04:03:31;;;;;;;10.50;3.95;;;;;;;11.19;100.00;102045.25;2095285;28;20086;-77
2023/02/14 04:04:56;;;;;;;10.27;3.55;;;;;;;11.19;100.00;102038.22;2083776;28;20382;-78
2023/02/14 04:06:22;;;;;;;7.97;3.65;;;;;;;11.18;100.00;102054.91;2087725;28;20048;-78
2023/02/14 04:07:46;;;;;;;11.30;4.10;;;;;;;11.19;100.00;102046.13;2089340;28;20123;-78
2023/02/14 04:09:09;;;;;;;9.23;4.03;;;;;;;11.22;100.00;102060.31;2081082;28;20046;-77
2023/02/14 04:10:31;;;;;;;9.23;3.17;;;;;;;11.25;100.00;102047.19;2078687;28;20461;-78
2023/02/14 04:11:53;;;;;;;9.23;3.78;;;;;;;11.28;100.00;102045.56;2099562;28;20052;-78
2023/02/14 04:13:15;;;;;;;7.43;3.40;;;;;;;11.32;100.00;102049.19;2091552;28;20053;-78
2023/02/14 04:14:38;;;;;;;8.93;3.42;;;;;;;11.36;100.00;102056.38;2085687;28;20590;-78
2023/02/14 04:15:59;;;;;;;9.48;3.70;;;;;;;11.40;100.00;102055.63;2078420;28;20113;-78
2023/02/14 04:20:40;;;;;;;9.35;3.38;;;;;;;11.51;100.00;102051.59;2089121;28;20370;-78
2023/02/14 04:22:02;;;;;;;8.45;3.42;;;;;;;11.54;100.00;102054.34;2085980;28;20056;-78
2023/02/14 04:23:24;;;;;;;;;;;;;;;11.52;100.00;102048.09;2084672;28;20511;-78
2023/02/14 04:24:48;;;;;;;7.45;3.40;;;;;;;11.56;100.00;102047.34;2083831;28;19924;-78
2023/02/14 04:26:11;;;;;;;6.55;3.33;;;;;;;11.62;100.00;102054.59;2094606;28;20347;-78
2023/02/14 04:27:32;;;;;;;10.32;3.65;;;;;;;11.65;100.00;102044.09;2088106;28;20481;-77
2023/02/14 04:28:54;;;;;;;11.38;3.25;;;;;;;11.68;100.00;102050.41;2094966;28;20140;-78
2023/02/14 04:30:16;;;;;;;9.25;3.65;;;;;;;11.72;100.00;102051.38;2089277;28;20037;-78
2023/02/14 04:31:39;;;;;;;7.85;3.55;;;;;;;11.75;100.00;102036.53;2086410;28;20061;-78
2023/02/14 04:33:01;;;;;;;7.95;3.25;;;;;;;11.78;100.00;102049.84;2086730;28;20055;-78
2023/02/14 04:34:22;;;;;;;10.38;3.55;;;;;;;11.80;100.00;102048.16;2085879;28;20103;-78
2023/02/14 04:35:44;;;;;;;12.07;3.55;;;;;;;11.81;100.00;102046.44;2086411;28;20131;-78
2023/02/14 04:37:06;;;;;;;8.50;3.10;;;;;;;11.83;100.00;102042.94;2084631;28;20123;-78
2023/02/14 04:38:29;;;;;;;7.75;3.42;;;;;;;11.84;100.00;102036.81;2086949;28;20040;-78
2023/02/14 04:39:51;;;;;;;7.43;3.20;;;;;;;11.84;100.00;102055.34;2086539;28;20065;-78
2023/02/14 04:41:13;;;;;;;7.68;3.30;;;;;;;11.86;100.00;102048.34;2085850;28;20697;-78
2023/02/14 04:42:35;;;;;;;8.75;3.38;;;;;;;11.87;100.00;102062.50;2085960;28;20080;-79
2023/02/14 04:43:57;;;;;;;12.60;3.78;;;;;;;11.86;100.00;102047.47;2086222;28;20489;-78
2023/02/14 04:45:19;;;;;;;8.05;3.58;;;;;;;11.85;100.00;102046.56;2084759;28;20037;-78
2023/02/14 04:46:41;;;;;;;9.02;3.00;;;;;;;11.84;100.00;102042.09;2103377;28;20046;-78
2023/02/14 04:48:03;;;;;;;10.57;4.10;;;;;;;11.82;100.00;102046.44;2091827;28;20056;-78
2023/02/14 04:49:25;;;;;;;9.10;3.67;;;;;;;11.79;100.00;102051.66;2085036;28;20037;-78
2023/02/14 04:50:52;;;;;;;8.35;3.88;;;;;;;11.77;100.00;102044.50;2086432;28;20147;-78
2023/02/14 04:52:14;;;;;;;9.13;3.92;;;;;;;11.72;100.00;102046.09;2080637;28;20413;-78
2023/02/14 04:53:39;;;;;;;9.90;3.53;;;;;;;11.70;100.00;102050.41;2100654;28;20059;-78
2023/02/14 04:55:01;;;;;;;7.80;3.40;;;;;;;11.69;100.00;102052.16;2088540;28;20057;-78
2023/02/14 04:56:24;;;;;;;9.88;3.88;;;;;;;11.68;100.00;102047.75;2103074;28;20051;-78
2023/02/14 04:57:47;;;;;;;8.05;3.10;;;;;;;11.67;100.00;102048.59;2091205;28;20041;-78
2023/02/14 04:59:09;;;;;;;13.57;3.88;;;;;;;11.66;100.00;102045.91;2085002;28;20111;-78
2023/02/14 05:00:31;;;;;;;6.68;3.17;;;;;;;11.65;100.00;102049.38;2087408;28;20041;-78
2023/02/14 05:01:53;;;;;;;5.97;3.10;;;;;;;11.65;100.00;102052.03;2087508;28;20072;-77
2023/02/14 05:03:15;;;;;;;10.90;3.05;;;;;;;11.63;100.00;102046.69;2101683;28;20047;-78
2023/02/14 05:04:36;;;;;;;8.05;3.15;;;;;;;11.61;100.00;102042.22;2090721;28;20045;-78
2023/02/14 05:05:59;;;;;;;7.28;3.45;;;;;;;11.59;100.00;102055.38;2085231;28;20042;-78
2023/02/14 05:07:21;;;;;;;10.45;3.50;;;;;;;11.56;100.00;102044.69;2084625;28;20053;-78
2023/02/14 05:08:42;;;;;;;9.50;3.35;;;;;;;11.54;100.00;102046.41;2086265;28;20045;-78
2023/02/14 05:10:07;;;;;;;9.40;3.42;;;;;;;11.51;100.00;102047.19;2086036;28;20064;-78
2023/02/14 05:11:30;;;;;;;9.90;3.10;;;;;;;11.48;100.00;102040.94;2086064;28;20041;-78
2023/02/14 05:12:52;;;;;;;8.85;3.70;;;;;;;11.48;100.00;102040.94;2081593;28;20118;-78
2023/02/14 05:14:15;;;;;;;8.68;3.20;;;;;;;11.47;100.00;102044.41;2094860;28;20048;-78
2023/02/14 05:15:38;;;;;;;11.95;3.45;;;;;;;11.46;100.00;102037.31;2091773;28;20154;-77
2023/02/14 05:17:00;;;;;;;8.48;3.45;;;;;;;11.47;100.00;102044.41;2073586;28;20051;-79
2023/02/14 05:18:21;;;;;;;7.55;3.35;;;;;;;11.48;100.00;102047.13;2083998;28;20098;-79
2023/02/14 05:19:44;;;;;;;5.90;3.10;;;;;;;11.53;100.00;102052.53;2085240;28;20045;-78
2023/02/14 05:21:06;;;;;;;5.93;2.97;;;;;;;11.57;100.00;102046.50;2085275;28;20059;-77
2023/02/14 05:22:29;;;;;;;10.52;3.45;;;;;;;11.61;100.00;102048.41;2085103;28;20048;-77
2023/02/14 05:23:51;;;;;;;8.98;3.53;;;;;;;11.64;100.00;102037.00;2077788;28;20097;-78
2023/02/14 05:25:15;;;;;;;8.30;3.05;;;;;;;11.68;100.00;102039.81;2080006;28;20045;-78
2023/02/14 05:26:37;;;;;;;7.65;3.38;;;;;;;11.70;100.00;102047.78;2086331;28;20080;-79
2023/02/14 05:27:59;;;;;;;9.82;3.40;;;;;;;11.72;100.00;102046.09;2084616;28;20048;-78
2023/02/14 05:29:21;;;;;;;6.57;2.95;;;;;;;11.75;100.00;102046.22;2094625;28;20103;-79
2023/02/14 05:30:43;;;;;;;9.98;3.55;;;;;;;11.75;100.00;102046.22;2090256;28;20064;-77
2023/02/14 05:32:05;;;;;;;9.90;3.40;;;;;;;11.75;100.00;102040.94;2087795;28;20049;-78
2023/02/14 05:33:28;;;;;;;9.13;3.42;;;;;;;11.75;100.00;102040.94;2086063;28;20098;-78
2023/02/14 05:34:49;;;;;;;8.23;2.95;;;;;;;11.75;100.00;102038.31;2085897;28;20053;-77
2023/02/14 05:36:11;;;;;;;10.57;3.05;;;;;;;11.74;100.00;102037.41;2087088;28;20049;-78
2023/02/14 05:37:33;;;;;;;8.68;2.85;;;;;;;11.73;100.00;102032.91;2084364;28;20072;-79
2023/02/14 05:38:55;;;;;;;8.90;3.70;;;;;;;11.73;100.00;102037.31;2084082;28;20155;-79
2023/02/14 05:40:19;;;;;;;10.70;3.83;;;;;;;11.76;100.00;102040.06;2084163;28;20539;-78
2023/02/14 05:41:42;;;;;;;8.10;3.30;;;;;;;11.78;100.00;102034.00;2092272;28;20053;-78
2023/02/14 05:43:03;;;;;;;10.77;3.83;;;;;;;11.83;100.00;102034.13;2080910;28;20058;-79
2023/02/14 05:44:25;;;;;;;12.02;4.82;;;;;;;11.88;100.00;102032.53;2085905;28;20043;-78
2023/02/14 05:45:48;;;;;;;16.60;6.88;;;;;;;11.91;100.00;102044.09;2084417;28;20049;-78
2023/02/14 05:47:10;;;;;;;19.92;9.50;;;;;;;11.94;100.00;102036.28;2077052;28;20671;-77
2023/02/14 05:48:32;;;;;;;12.27;5.45;;;;;;;12.00;100.00;102039.94;2077718;28;20395;-79
2023/02/14 05:49:54;;;;;;;8.43;3.92;;;;;;;12.03;100.00;102042.66;2078051;28;20037;-79
2023/02/14 05:51:17;;;;;;;10.32;4.18;;;;;;;12.07;100.00;102039.28;2084693;28;20461;-78
2023/02/14 05:52:38;;;;;;;8.45;3.40;;;;;;;12.10;100.00;102037.59;2084712;28;20049;-78
2023/02/14 05:54:01;;;;;;;8.15;3.40;;;;;;;12.13;100.00;102043.00;2088438;28;20053;-78
2023/02/14 05:55:25;;;;;;;8.15;3.00;;;;;;;12.17;100.00;102041.34;2098552;28;20044;-78
2023/02/14 05:56:47;;;;;;;7.40;3.00;;;;;;;12.20;100.00;102033.50;2090164;28;20109;-78
2023/02/14 05:58:08;;;;;;;7.93;3.50;;;;;;;12.24;100.00;102046.84;2082264;28;20044;-78
2023/02/14 05:59:31;;;;;;;10.63;3.70;;;;;;;12.28;100.00;102039.88;2080520;28;20054;-78
2023/02/14 06:00:53;;;;;;;10.73;3.38;;;;;;;12.32;100.00;102047.09;2093989;28;20052;-79
2023/02/14 06:02:15;;;;;;;11.02;3.85;;;;;;;12.34;100.00;102034.75;2086868;28;20057;-79
2023/02/14 06:03:38;;;;;;;6.72;3.95;;;;;;;12.36;100.00;102039.25;2093433;28;20045;-79
2023/02/14 06:05:00;;;;;;;6.80;3.47;;;;;;;12.37;100.00;102029.56;2088561;28;20484;-79
2023/02/14 06:06:22;;;;;;;7.65;3.40;;;;;;;12.39;100.00;102035.81;2085750;28;20041;-78
2023/02/14 06:07:49;;;;;;;7.55;3.90;;;;;;;12.43;100.00;102040.34;2085721;28;20045;-78
2023/02/14 06:09:11;;;;;;;8.68;3.70;;;;;;;12.51;100.00;102045.84;2094729;28;20087;-78
2023/02/14 06:10:35;;;;;;;7.47;4.07;;;;;;;12.57;100.00;102036.34;2088869;28;20064;-79
2023/02/14 06:11:57;;;;;;;10.52;5.22;;;;;;;12.65;100.00;102034.81;2085845;28;20048;-78
2023/02/14 06:13:20;;;;;;;9.23;4.72;;;;;;;12.77;100.00;102037.78;2085962;28;20037;-78
2023/02/14 06:14:43;;;;;;;11.27;4.53;;;;;;;12.94;99.37;102034.66;2086270;28;20456;-79
2023/02/14 06:16:06;;;;;;;7.82;5.90;;;;;;;13.12;98.54;102032.50;2086323;28;20136;-79
2023/02/14 06:17:27;;;;;;;8.57;5.20;;;;;;;13.27;96.26;102038.22;2085749;28;20040;-79
2023/02/14 06:18:50;;;;;;;7.65;3.83;;;;;;;13.41;93.10;102042.13;2085960;28;20084;-79
2023/02/14 06:20:12;;;;;;;9.80;3.72;;;;;;;13.57;92.06;102033.69;2085677;28;20045;-78
2023/02/14 06:21:34;;;;;;;8.07;5.50;;;;;;;13.77;91.30;102041.22;2085880;28;20045;-78
2023/02/14 06:22:57;;;;;;;8.20;4.53;;;;;;;13.98;91.67;102029.28;2085605;28;20060;-79
2023/02/14 06:24:19;;;;;;;8.32;4.38;;;;;;;14.19;90.83;102033.28;2085836;28;20045;-78
2023/02/14 06:25:43;;;;;;;7.47;3.40;;;;;;;14.35;89.15;102038.06;2083514;28;20398;-79
2023/02/14 06:27:05;;;;;;;6.45;2.72;;;;;;;14.39;88.66;102039.03;2077758;28;20057;-78
2023/02/14 06:28:27;;;;;;;6.72;2.88;;;;;;;14.34;86.41;102039.81;2077518;28;20029;-78
2023/02/14 06:29:50;;;;;;;7.68;3.95;;;;;;;14.26;85.34;102046.72;2085728;28;20052;-78
2023/02/14 06:31:16;;;;;;;7.55;3.05;;;;;;;14.17;85.15;102040.34;2085688;28;20057;-78
2023/02/14 06:32:39;;;;;;;6.60;2.90;;;;;;;14.06;85.47;102041.84;2079949;28;20062;-78
2023/02/14 06:34:01;;;;;;;6.22;2.60;;;;;;;13.95;85.28;102033.66;2083087;28;20123;-78
2023/02/14 06:35:23;;;;;;;7.13;3.40;;;;;;;13.86;84.76;102039.66;2094025;28;20114;-78
2023/02/14 06:36:44;;;;;;;8.05;4.00;;;;;;;13.76;85.16;102035.00;2087948;28;20040;-78
2023/02/14 06:38:07;;;;;;;9.40;3.92;;;;;;;13.66;86.17;102043.59;2087936;28;20053;-78
2023/02/14 06:39:29;;;;;;;7.68;3.60;;;;;;;13.55;88.60;102038.03;2084142;28;20033;-77
2023/02/14 06:40:53;;;;;;;10.00;3.40;;;;;;;13.45;90.99;102043.09;2100430;28;20083;-78
2023/02/14 06:42:15;;;;;;;7.63;3.25;;;;;;;13.33;93.71;102035.72;2091017;28;20437;-78
2023/02/14 06:43:37;;;;;;;7.15;3.58;;;;;;;13.23;95.26;102033.72;2085647;28;20049;-78